Poliegos — SVCN9 — position and weather

sailwx.info

Track history (hours):
 
Tides and Currents Weather Stations Pressure Air Temp Water Temp Dewpoint Dewpoint Depression Visibility Wind Speed Wind Dir Waves Ship Positions

Poliegos

Last reported at 2017-Nov-18 14:00 UTC. Time now 2017-Nov-18 14:23 UTC.
Position N 44°27' E 037°38'.

Length 277 m; draft 9.5 m.

Type: Tanker. MMSI: 241488000.

Date/timePositionNaut miles runAvg speedWind from/ knotsBaromVisibWave heightAir tempDewpointWater temp
2017-Nov-18 14:00N 44°27' E 037°38'611.4
2017-Nov-18 13:30N 44°26' E 037°30'5 8.9
2017-Nov-18 13:00N 44°25' E 037°24'1 1.2
2017-Nov-18 12:30N 44°25' E 037°25'1 1.3
2017-Nov-18 11:55N 44°25' E 037°26'1 1.3
2017-Nov-18 11:30N 44°25' E 037°26'1 1.1
2017-Nov-18 10:59N 44°24' E 037°27'1 1.1
2017-Nov-18 10:30N 44°24' E 037°28'1 1.2
2017-Nov-18 10:00N 44°24' E 037°28'1 1.1
2017-Nov-18 09:30N 44°24' E 037°29'1 1.1
2017-Nov-18 09:00N 44°23' E 037°30'1 1.1
2017-Nov-18 08:30N 44°23' E 037°30'1 1.1
2017-Nov-18 08:00N 44°23' E 037°31'1 1.1
2017-Nov-18 07:29N 44°23' E 037°32'0 1.0
2017-Nov-18 07:00N 44°23' E 037°33'2423.6
2017-Nov-18 05:59N 44°36' E 038°01'0 0.0
2017-Nov-18 05:29N 44°36' E 038°01'0 0.0
2017-Nov-18 05:00N 44°36' E 038°01'2345.4
2017-Nov-18 04:30N 44°22' E 037°36'2343.3
2017-Nov-18 03:59N 44°36' E 038°01'0 0.0
2017-Nov-18 03:30N 44°36' E 038°01'2230.5
2017-Nov-18 02:48N 44°22' E 037°37'0 0.6
2017-Nov-18 02:30N 44°22' E 037°38'0 0.6
2017-Nov-18 02:00N 44°22' E 037°38'0 0.5
2017-Nov-18 01:30N 44°22' E 037°38'0 0.5
2017-Nov-18 01:00N 44°22' E 037°39'0 0.5
2017-Nov-18 00:28N 44°22' E 037°39'0 0.5
2017-Nov-18 00:00N 44°22' E 037°39'0 0.5
2017-Nov-17 23:28N 44°23' E 037°40'0 0.4
2017-Nov-17 23:00N 44°23' E 037°40'0 0.5
2017-Nov-17 22:30N 44°23' E 037°40'0 0.5
2017-Nov-17 22:00N 44°23' E 037°40'0 0.5
2017-Nov-17 21:30N 44°23' E 037°41'0 0.4
2017-Nov-17 21:00N 44°23' E 037°41'0 0.5
2017-Nov-17 20:30N 44°23' E 037°41'0 0.5
2017-Nov-17 20:00N 44°24' E 037°41'0 0.5
2017-Nov-17 19:30N 44°24' E 037°42'0 0.6
2017-Nov-17 19:00N 44°24' E 037°42'0 0.7
2017-Nov-17 18:30N 44°24' E 037°42'0 0.8
2017-Nov-17 18:00N 44°25' E 037°42'0 0.8
2017-Nov-17 17:30N 44°25' E 037°42'1 1.3
2017-Nov-17 17:00N 44°26' E 037°42'3 5.5
2017-Nov-17 16:30N 44°23' E 037°40'5 9.0
2017-Nov-17 15:58N 44°19' E 037°36'4 8.5
2017-Nov-17 15:28N 44°16' E 037°33'2 0.7
2017-Nov-17 13:15N 44°18' E 037°32'0 1.2
2017-Nov-17 13:00N 44°18' E 037°33'1 1.4
2017-Nov-17 12:29N 44°18' E 037°33'2650.1
2017-Nov-17 11:58N 44°35' E 038°01'2548.1
2017-Nov-17 11:27N 44°19' E 037°35'1 1.6
2017-Nov-17 11:00N 44°19' E 037°36'1 1.1
2017-Nov-17 10:30N 44°20' E 037°36'1 1.2
2017-Nov-17 09:58N 44°20' E 037°37'1 1.2
2017-Nov-17 09:30N 44°20' E 037°37'1 1.1
2017-Nov-17 09:00N 44°21' E 037°38'0 1.0
2017-Nov-17 08:30N 44°21' E 037°38'1 1.1
2017-Nov-17 08:00N 44°21' E 037°39'1 1.1
2017-Nov-17 07:30N 44°22' E 037°39'0 1.0
2017-Nov-17 07:00N 44°22' E 037°40'0 1.0
2017-Nov-17 06:30N 44°23' E 037°40'  
2017-Nov-14 16:47N 40°48' E 028°53'0 0.7
2017-Nov-14 16:29N 40°48' E 028°53'1 1.1
2017-Nov-14 15:58N 40°48' E 028°53'3 5.8
2017-Nov-14 15:30N 40°48' E 028°49'  
Track history (hours):
 
Tides and Currents Weather Stations Pressure Air Temp Water Temp Dewpoint Dewpoint Depression Visibility Wind Speed Wind Dir Waves Ship Positions

Poliegos

Last reported at 2017-Nov-18 14:00 UTC. Time now 2017-Nov-18 14:23 UTC.
Position N 44°27' E 037°38'.

Length 277 m; draft 9.5 m.

Type: Tanker. MMSI: 241488000.

Date/timePositionNaut miles runAvg speedWind from/ knotsBaromVisibWave heightAir tempDewpointWater temp
2017-Nov-18 14:00N 44°27' E 037°38'611.4
2017-Nov-18 13:30N 44°26' E 037°30'5 8.9
2017-Nov-18 13:00N 44°25' E 037°24'1 1.2
2017-Nov-18 12:30N 44°25' E 037°25'1 1.3
2017-Nov-18 11:55N 44°25' E 037°26'1 1.3
2017-Nov-18 11:30N 44°25' E 037°26'1 1.1
2017-Nov-18 10:59N 44°24' E 037°27'1 1.1
2017-Nov-18 10:30N 44°24' E 037°28'1 1.2
2017-Nov-18 10:00N 44°24' E 037°28'1 1.1
2017-Nov-18 09:30N 44°24' E 037°29'1 1.1
2017-Nov-18 09:00N 44°23' E 037°30'1 1.1
2017-Nov-18 08:30N 44°23' E 037°30'1 1.1
2017-Nov-18 08:00N 44°23' E 037°31'1 1.1
2017-Nov-18 07:29N 44°23' E 037°32'0 1.0
2017-Nov-18 07:00N 44°23' E 037°33'2423.6
2017-Nov-18 05:59N 44°36' E 038°01'0 0.0
2017-Nov-18 05:29N 44°36' E 038°01'0 0.0
2017-Nov-18 05:00N 44°36' E 038°01'2345.4
2017-Nov-18 04:30N 44°22' E 037°36'2343.3
2017-Nov-18 03:59N 44°36' E 038°01'0 0.0
2017-Nov-18 03:30N 44°36' E 038°01'2230.5
2017-Nov-18 02:48N 44°22' E 037°37'0 0.6
2017-Nov-18 02:30N 44°22' E 037°38'0 0.6
2017-Nov-18 02:00N 44°22' E 037°38'0 0.5
2017-Nov-18 01:30N 44°22' E 037°38'0 0.5
2017-Nov-18 01:00N 44°22' E 037°39'0 0.5
2017-Nov-18 00:28N 44°22' E 037°39'0 0.5
2017-Nov-18 00:00N 44°22' E 037°39'0 0.5
2017-Nov-17 23:28N 44°23' E 037°40'0 0.4
2017-Nov-17 23:00N 44°23' E 037°40'0 0.5
2017-Nov-17 22:30N 44°23' E 037°40'0 0.5
2017-Nov-17 22:00N 44°23' E 037°40'0 0.5
2017-Nov-17 21:30N 44°23' E 037°41'0 0.4
2017-Nov-17 21:00N 44°23' E 037°41'0 0.5
2017-Nov-17 20:30N 44°23' E 037°41'0 0.5
2017-Nov-17 20:00N 44°24' E 037°41'0 0.5
2017-Nov-17 19:30N 44°24' E 037°42'0 0.6
2017-Nov-17 19:00N 44°24' E 037°42'0 0.7
2017-Nov-17 18:30N 44°24' E 037°42'0 0.8
2017-Nov-17 18:00N 44°25' E 037°42'0 0.8
2017-Nov-17 17:30N 44°25' E 037°42'1 1.3
2017-Nov-17 17:00N 44°26' E 037°42'3 5.5
2017-Nov-17 16:30N 44°23' E 037°40'5 9.0
2017-Nov-17 15:58N 44°19' E 037°36'4 8.5
2017-Nov-17 15:28N 44°16' E 037°33'2 0.7
2017-Nov-17 13:15N 44°18' E 037°32'0 1.2
2017-Nov-17 13:00N 44°18' E 037°33'1 1.4
2017-Nov-17 12:29N 44°18' E 037°33'2650.1
2017-Nov-17 11:58N 44°35' E 038°01'2548.1
2017-Nov-17 11:27N 44°19' E 037°35'1 1.6
2017-Nov-17 11:00N 44°19' E 037°36'1 1.1
2017-Nov-17 10:30N 44°20' E 037°36'1 1.2
2017-Nov-17 09:58N 44°20' E 037°37'1 1.2
2017-Nov-17 09:30N 44°20' E 037°37'1 1.1
2017-Nov-17 09:00N 44°21' E 037°38'0 1.0
2017-Nov-17 08:30N 44°21' E 037°38'1 1.1
2017-Nov-17 08:00N 44°21' E 037°39'1 1.1
2017-Nov-17 07:30N 44°22' E 037°39'0 1.0
2017-Nov-17 07:00N 44°22' E 037°40'0 1.0
2017-Nov-17 06:30N 44°23' E 037°40'  
2017-Nov-14 16:47N 40°48' E 028°53'0 0.7
2017-Nov-14 16:29N 40°48' E 028°53'1 1.1
2017-Nov-14 15:58N 40°48' E 028°53'3 5.8
2017-Nov-14 15:30N 40°48' E 028°49'  

Dump ship's entire track history